createdAt,value
2019-01-12T00:01:35.050Z,94068.63
2019-01-12T00:04:03.167Z,94070.69
2019-01-12T00:06:31.712Z,94071.94
2019-01-12T00:09:00.200Z,94070.27
2019-01-12T00:11:28.312Z,94076.59
2019-01-12T00:13:56.564Z,94073.66
2019-01-12T00:16:24.841Z,94066.52
2019-01-12T00:18:53.389Z,94065.68
2019-01-12T00:21:21.547Z,94071.14
2019-01-12T00:23:49.287Z,94072.74
2019-01-12T00:26:17.684Z,94069.42
2019-01-12T00:28:45.559Z,94075.76
2019-01-12T00:31:13.740Z,94082.05
2019-01-12T00:33:41.116Z,94084.09
2019-01-12T00:36:09.258Z,94075.76
2019-01-12T00:38:37.322Z,94086.67
2019-01-12T00:41:05.484Z,94079.16
2019-01-12T00:43:33.175Z,94079.61
2019-01-12T00:46:01.583Z,94087.63
2019-01-12T00:48:29.659Z,94081.29
2019-01-12T00:50:57.828Z,94086.41
2019-01-12T00:53:25.910Z,94082.62
2019-01-12T00:55:54.072Z,94089.73
2019-01-12T00:58:22.264Z,94090.15
2019-01-12T01:00:50.342Z,94088.92
2019-01-12T01:03:18.810Z,94092.78
2019-01-12T01:05:46.974Z,94094.80
2019-01-12T01:08:15.489Z,94096.06
2019-01-12T01:10:43.586Z,94100.23
2019-01-12T01:13:11.747Z,94102.33
2019-01-12T01:15:39.117Z,94100.23
2019-01-12T01:18:06.896Z,94104.39
2019-01-12T01:20:35.366Z,94106.98
2019-01-12T01:23:03.941Z,94104.50
2019-01-12T01:25:31.764Z,94110.45
2019-01-12T01:27:59.806Z,94108.73
2019-01-12T01:30:27.966Z,94111.27
2019-01-12T01:32:56.160Z,94107.09
2019-01-12T01:35:23.595Z,94105.00
2019-01-12T01:37:52.041Z,94110.91
2019-01-12T01:40:20.353Z,94115.92
2019-01-12T01:42:48.911Z,94115.46
2019-01-12T01:45:17.387Z,94112.59
2019-01-12T01:47:45.592Z,94114.73
2019-01-12T01:50:54.289Z,94117.28
2019-01-12T01:53:22.337Z,94121.91
2019-01-12T01:55:50.812Z,94121.00
2019-01-12T01:58:19.004Z,94113.92
2019-01-12T02:00:47.178Z,94120.26
2019-01-12T02:03:14.942Z,94120.64
2019-01-12T02:05:43.026Z,94124.88
2019-01-12T02:08:11.512Z,94121.98
2019-01-12T02:10:39.629Z,94129.40
2019-01-12T02:13:07.452Z,94123.55
2019-01-12T02:15:36.040Z,94114.80
2019-01-12T02:18:04.424Z,94114.80
2019-01-12T02:20:33.010Z,94117.73
2019-01-12T02:23:01.414Z,94113.15
2019-01-12T02:25:29.519Z,94113.12
2019-01-12T02:27:58.076Z,94111.83
2019-01-12T02:30:25.817Z,94110.63
2019-01-12T02:32:54.484Z,94113.58
2019-01-12T02:35:23.015Z,94118.19
2019-01-12T02:37:50.991Z,94116.55
2019-01-12T02:40:19.453Z,94114.90
2019-01-12T02:42:47.569Z,94112.83
2019-01-12T02:45:15.770Z,94108.27
2019-01-12T02:47:43.866Z,94115.80
2019-01-12T02:50:52.433Z,94106.11
2019-01-12T02:53:20.903Z,94107.05
2019-01-12T02:55:49.317Z,94104.52
2019-01-12T02:58:18.452Z,94101.52
2019-01-12T03:00:47.073Z,94097.34
2019-01-12T03:03:15.491Z,94095.24
2019-01-12T03:05:43.655Z,94099.05
2019-01-12T03:08:12.147Z,94103.68
2019-01-12T03:10:39.897Z,94099.86
2019-01-12T03:13:08.079Z,94094.05
2019-01-12T03:15:36.626Z,94094.43
2019-01-12T03:18:03.970Z,94099.51
2019-01-12T03:20:32.325Z,94094.85
2019-01-12T03:23:00.810Z,94092.72
2019-01-12T03:25:28.977Z,94091.48
2019-01-12T03:27:57.044Z,94086.00
2019-01-12T03:30:25.379Z,94086.45
2019-01-12T03:32:53.520Z,94090.68
2019-01-12T03:35:21.912Z,94088.19
2019-01-12T03:37:50.075Z,94088.97
2019-01-12T03:40:19.224Z,94089.03
2019-01-12T03:42:47.687Z,94082.72
2019-01-12T03:45:16.719Z,94085.30
2019-01-12T03:47:44.742Z,94077.67
2019-01-12T03:50:13.241Z,94078.97
2019-01-12T03:52:41.059Z,94078.09
2019-01-12T03:55:49.488Z,94070.05
2019-01-12T03:58:18.015Z,94068.37
2019-01-12T04:00:45.860Z,94071.40
2019-01-12T04:03:14.343Z,94075.60
2019-01-12T04:05:42.424Z,94066.41
2019-01-12T04:08:10.903Z,94063.47
2019-01-12T04:10:39.299Z,94068.06
2019-01-12T04:13:07.679Z,94059.27
2019-01-12T04:15:35.866Z,94057.97
2019-01-12T04:18:04.046Z,94061.76
2019-01-12T04:20:32.103Z,94060.52
2019-01-12T04:23:00.518Z,94052.53
2019-01-12T04:25:33.557Z,94057.20
2019-01-12T04:27:58.894Z,94060.62
2019-01-12T04:30:27.400Z,94055.63
2019-01-12T04:32:55.115Z,94066.09
2019-01-12T04:35:23.585Z,94062.34
2019-01-12T04:37:51.767Z,94062.34
2019-01-12T04:40:20.325Z,94067.41
2019-01-12T04:42:48.393Z,94060.73
2019-01-12T04:45:16.508Z,94066.22
2019-01-12T04:47:44.970Z,94063.67
2019-01-12T04:50:14.082Z,94060.25
2019-01-12T04:52:42.251Z,94067.86
2019-01-12T04:55:10.408Z,94065.28
2019-01-12T04:57:38.916Z,94062.36
2019-01-12T05:00:09.323Z,94057.76
2019-01-12T05:02:37.457Z,94046.80
2019-01-12T05:05:05.699Z,94050.19
2019-01-12T05:07:40.841Z,94048.50
2019-01-12T05:10:09.123Z,94050.63
2019-01-12T05:12:37.230Z,94053.53
2019-01-12T05:15:06.729Z,94050.16
2019-01-12T05:17:34.747Z,94045.16
2019-01-12T05:20:03.060Z,94048.57
2019-01-12T05:22:31.446Z,94047.75
2019-01-12T05:24:59.922Z,94053.64
2019-01-12T05:27:28.046Z,94052.80
2019-01-12T05:29:55.777Z,94062.87
2019-01-12T05:32:24.303Z,94060.33
2019-01-12T05:34:52.649Z,94054.44
2019-01-12T05:37:21.134Z,94059.91
2019-01-12T05:39:49.556Z,94062.03
2019-01-12T05:42:17.940Z,94074.23
2019-01-12T05:44:46.011Z,94072.13
2019-01-12T05:47:14.065Z,94072.92
2019-01-12T05:49:42.532Z,94073.37
2019-01-12T05:52:10.963Z,94077.97
2019-01-12T05:54:38.784Z,94083.89
2019-01-12T05:57:06.917Z,94083.02
2019-01-12T05:59:35.378Z,94079.26
2019-01-12T06:02:03.432Z,94088.07
2019-01-12T06:04:31.625Z,94080.50
2019-01-12T06:07:00.042Z,94082.09
2019-01-12T06:09:28.096Z,94076.63
2019-01-12T06:11:56.192Z,94080.45
2019-01-12T06:14:24.342Z,94070.80
2019-01-12T06:16:51.734Z,94071.56
2019-01-12T06:19:19.873Z,94073.27
2019-01-12T06:21:48.302Z,94072.43
2019-01-12T06:24:16.748Z,94072.01
2019-01-12T06:26:44.909Z,94078.77
2019-01-12T06:29:13.319Z,94074.95
2019-01-12T06:31:41.710Z,94077.05
2019-01-12T06:34:09.711Z,94078.34
2019-01-12T06:36:37.893Z,94075.38
2019-01-12T06:39:48.352Z,94080.45
2019-01-12T06:42:16.103Z,94074.58
2019-01-12T06:44:44.353Z,94073.69
2019-01-12T06:47:12.833Z,94074.95
2019-01-12T06:49:40.962Z,94074.48
2019-01-12T06:52:09.423Z,94081.70
2019-01-12T06:54:37.222Z,94075.00
2019-01-12T06:57:05.243Z,94076.66
2019-01-12T06:59:34.292Z,94073.27
2019-01-12T07:02:03.395Z,94072.41
2019-01-12T07:04:31.471Z,94074.13
2019-01-12T07:06:59.611Z,94085.08
2019-01-12T07:09:28.092Z,94084.18
2019-01-12T07:11:56.162Z,94085.02
2019-01-12T07:14:24.591Z,94079.58
2019-01-12T07:16:52.730Z,94082.97
2019-01-12T07:19:21.216Z,94082.97
2019-01-12T07:21:49.703Z,94079.20
2019-01-12T07:24:17.888Z,94082.59
2019-01-12T07:26:46.370Z,94091.41
2019-01-12T07:29:14.417Z,94105.73
2019-01-12T07:31:42.951Z,94091.83
2019-01-12T07:34:11.447Z,94100.30
2019-01-12T07:36:39.945Z,94099.45
2019-01-12T07:39:08.550Z,94105.31
2019-01-12T07:41:36.602Z,94106.58
2019-01-12T07:44:04.375Z,94099.40
2019-01-12T07:46:32.837Z,94114.17
2019-01-12T07:49:00.920Z,94102.81
2019-01-12T07:51:29.015Z,94109.94
2019-01-12T07:53:57.058Z,94107.89
2019-01-12T07:56:24.896Z,94110.39
2019-01-12T07:58:53.311Z,94106.99
2019-01-12T08:01:21.406Z,94109.16
2019-01-12T08:03:49.886Z,94120.12
2019-01-12T08:06:18.408Z,94113.83
2019-01-12T08:08:46.794Z,94118.92
2019-01-12T08:11:14.956Z,94121.84
2019-01-12T08:13:43.119Z,94120.64
2019-01-12T08:16:11.521Z,94118.92
2019-01-12T08:18:39.672Z,94112.23
2019-01-12T08:21:08.182Z,94116.83
2019-01-12T08:23:36.015Z,94121.03
2019-01-12T08:26:04.730Z,94117.27
2019-01-12T08:28:32.798Z,94118.98
2019-01-12T08:31:01.918Z,94126.97
2019-01-12T08:33:30.602Z,94124.45
2019-01-12T08:35:58.699Z,94127.05
2019-01-12T08:38:26.391Z,94124.96
2019-01-12T08:41:14.083Z,94127.91
2019-01-12T08:44:22.679Z,94124.09
2019-01-12T08:46:50.807Z,94108.56
2019-01-12T08:49:19.236Z,94129.22
2019-01-12T08:51:47.725Z,94123.36
2019-01-12T08:54:15.918Z,94121.70
2019-01-12T08:57:24.319Z,94127.13
2019-01-12T08:59:52.806Z,94123.74
2019-01-12T09:02:21.506Z,94114.54
2019-01-12T09:05:29.770Z,94112.44
2019-01-12T09:07:57.829Z,94110.73
2019-01-12T09:10:26.423Z,94115.38
2019-01-12T09:12:55.150Z,94111.59
2019-01-12T09:15:24.128Z,94106.56
2019-01-12T09:18:11.184Z,94103.61
2019-01-12T09:20:58.561Z,94109.13
2019-01-12T09:23:26.666Z,94099.48
2019-01-12T09:25:54.821Z,94109.17
2019-01-12T09:28:22.993Z,94118.48
2019-01-12T09:30:50.809Z,94115.09
2019-01-12T09:33:19.563Z,94113.02
2019-01-12T09:35:47.393Z,94109.67
2019-01-12T09:38:16.019Z,94111.31
2019-01-12T09:40:44.471Z,94115.16
2019-01-12T09:43:13.271Z,94115.53
2019-01-12T09:45:42.234Z,94107.98
2019-01-12T09:48:10.438Z,94113.86
2019-01-12T09:50:39.006Z,94111.78
2019-01-12T09:53:07.101Z,94102.89
2019-01-12T09:55:35.829Z,94103.36
2019-01-12T09:58:03.569Z,94105.50
2019-01-12T10:00:32.222Z,94102.98
2019-01-12T10:03:01.089Z,94105.48
2019-01-12T10:08:17.202Z,94091.20
2019-01-12T10:11:05.012Z,94085.30
2019-01-12T10:13:33.636Z,94078.58
2019-01-12T10:16:01.051Z,94082.36
2019-01-12T10:18:29.489Z,94084.02
2019-01-12T10:20:58.002Z,94081.94
2019-01-12T10:23:26.608Z,94086.59
2019-01-12T10:25:55.047Z,94077.32
2019-01-12T10:28:23.527Z,94074.80
2019-01-12T10:30:51.752Z,94070.59
2019-01-12T10:33:19.547Z,94069.34
2019-01-12T10:35:47.706Z,94060.89
2019-01-12T10:38:16.219Z,94064.70
2019-01-12T10:40:45.077Z,94057.94
2019-01-12T10:43:13.531Z,94056.73
2019-01-12T10:48:16.444Z,94046.63
2019-01-12T10:50:45.182Z,94052.14
2019-01-12T10:53:13.758Z,94044.09
2019-01-12T10:55:41.648Z,94053.38
2019-01-12T10:58:11.316Z,94032.30
2019-01-12T11:00:39.675Z,94025.16
2019-01-12T11:03:08.168Z,94019.26
2019-01-12T11:05:36.662Z,94007.85
2019-01-12T11:08:05.187Z,94001.95
2019-01-12T11:10:33.506Z,94003.64
2019-01-12T11:13:02.807Z,93999.00
2019-01-12T11:15:30.698Z,93998.58
2019-01-12T11:17:59.226Z,93988.45
2019-01-12T11:20:27.885Z,93992.25
2019-01-12T11:22:55.733Z,93993.52
2019-01-12T11:25:25.985Z,93990.99
2019-01-12T11:27:54.777Z,93992.69
2019-01-12T11:33:12.606Z,93989.72
2019-01-12T11:35:40.719Z,93992.25
2019-01-12T11:38:08.877Z,93993.09
2019-01-12T11:40:37.327Z,93988.44
2019-01-12T11:43:05.230Z,93983.83
2019-01-12T11:45:33.430Z,93973.27
2019-01-12T11:48:01.944Z,93969.91
2019-01-12T11:50:30.618Z,93977.47
2019-01-12T11:52:58.602Z,93977.48
2019-01-12T11:55:26.333Z,93973.70
2019-01-12T11:57:54.858Z,93974.95
2019-01-12T12:00:27.512Z,93973.70
2019-01-12T12:02:55.693Z,93989.30
2019-01-12T12:05:23.957Z,93974.55
2019-01-12T12:07:52.329Z,93966.52
2019-01-12T12:10:20.625Z,93951.36
2019-01-12T12:12:49.207Z,93947.97
2019-01-12T12:18:12.097Z,93924.36
2019-01-12T12:20:39.832Z,93907.50
2019-01-12T12:23:07.708Z,93901.56
2019-01-12T12:25:35.843Z,93887.22
2019-01-12T12:28:04.294Z,93885.12
2019-01-12T12:30:32.417Z,93861.92
2019-01-12T12:33:00.512Z,93870.81
2019-01-12T12:35:28.503Z,93853.09
2019-01-12T12:37:56.940Z,93841.27
2019-01-12T12:41:05.281Z,93837.06
2019-01-12T12:43:34.063Z,93831.15
2019-01-12T12:46:02.214Z,93829.48
2019-01-12T12:48:30.612Z,93832.47
2019-01-12T12:50:58.662Z,93835.41
2019-01-12T12:53:26.917Z,93836.25
2019-01-12T12:55:55.404Z,93826.14
2019-01-12T12:58:23.830Z,93825.72
2019-01-12T13:00:51.973Z,93826.13
2019-01-12T13:03:20.757Z,93818.13
2019-01-12T13:05:49.238Z,93824.88
2019-01-12T13:08:17.081Z,93818.12
2019-01-12T13:10:45.397Z,93829.94
2019-01-12T13:13:14.084Z,93823.60
2019-01-12T13:16:02.058Z,93828.64
2019-01-12T13:18:31.106Z,93827.80
2019-01-12T13:23:54.823Z,93838.77
2019-01-12T13:27:03.144Z,93843.40
2019-01-12T13:30:11.394Z,93845.12
2019-01-12T13:32:58.840Z,93837.08
2019-01-12T13:35:27.197Z,93836.21
2019-01-12T13:38:35.733Z,93827.80
2019-01-12T13:41:44.123Z,93827.80
2019-01-12T13:44:12.737Z,93828.63
2019-01-12T13:46:40.898Z,93826.06
2019-01-12T13:49:28.979Z,93812.59
2019-01-12T13:52:17.409Z,93817.23
2019-01-12T13:55:24.994Z,93810.45
2019-01-12T13:57:53.123Z,93809.16
2019-01-12T14:00:40.309Z,93821.84
2019-01-12T14:03:49.060Z,93818.91
2019-01-12T14:06:17.702Z,93813.03
2019-01-12T14:08:46.599Z,93821.90
2019-01-12T14:11:55.243Z,93805.05
2019-01-12T14:14:23.499Z,93808.88
2019-01-12T14:16:51.414Z,93806.33
2019-01-12T14:19:19.643Z,93796.64
2019-01-12T14:24:56.718Z,93783.58
2019-01-12T14:27:24.518Z,93776.84
2019-01-12T14:29:52.968Z,93770.50
2019-01-12T14:32:21.468Z,93787.80
2019-01-12T14:34:53.691Z,93770.92
2019-01-12T14:37:22.639Z,93769.25
2019-01-12T14:43:07.039Z,93763.37
2019-01-12T14:46:15.323Z,93763.80
2019-01-12T14:48:44.453Z,93754.50
2019-01-12T14:54:38.632Z,93752.00
2019-01-12T14:57:07.216Z,93754.94
2019-01-12T14:59:36.545Z,93748.62
2019-01-12T15:02:24.839Z,93737.67
2019-01-12T15:04:53.130Z,93745.25
2019-01-12T15:07:21.654Z,93741.48
2019-01-12T15:09:49.740Z,93728.41
2019-01-12T15:12:18.930Z,93722.95
2019-01-12T15:18:21.390Z,93709.02
2019-01-12T15:23:56.163Z,93707.80
2019-01-12T15:26:43.137Z,93701.48
2019-01-12T15:29:11.671Z,93694.72
2019-01-12T15:31:39.916Z,93691.80
2019-01-12T15:34:08.034Z,93700.63
2019-01-12T15:36:36.229Z,93683.78
2019-01-12T15:39:07.658Z,93681.23
2019-01-12T15:41:35.712Z,93663.12
2019-01-12T15:44:03.564Z,93642.09
2019-01-12T15:46:31.744Z,93656.84
2019-01-12T15:48:59.833Z,93671.58
2019-01-12T15:51:28.540Z,93673.28
2019-01-12T15:53:56.540Z,93685.48
2019-01-12T15:59:20.114Z,93661.48
2019-01-12T16:02:07.955Z,93661.91
2019-01-12T16:04:36.846Z,93661.90
2019-01-12T16:12:33.923Z,93665.28
2019-01-12T16:15:02.495Z,93664.87
2019-01-12T16:17:30.672Z,93658.95
2019-01-12T16:19:58.870Z,93661.45
2019-01-12T16:22:27.342Z,93644.60
2019-01-12T16:24:55.511Z,93654.30
2019-01-12T16:27:24.015Z,93638.69
2019-01-12T16:29:52.447Z,93659.77
2019-01-12T16:32:20.665Z,93656.81
2019-01-12T16:34:49.259Z,93636.59
2019-01-12T16:37:17.460Z,93634.03
2019-01-12T16:39:45.342Z,93621.41
2019-01-12T16:42:13.184Z,93611.28
2019-01-12T16:44:41.777Z,93620.98
2019-01-12T16:47:10.010Z,93613.40
2019-01-12T16:49:38.132Z,93613.81
2019-01-12T16:52:06.254Z,93609.19
2019-01-12T16:54:34.795Z,93608.77
2019-01-12T16:57:03.401Z,93615.54
2019-01-12T16:59:31.674Z,93600.76
2019-01-12T17:02:00.154Z,93585.17
2019-01-12T17:04:27.794Z,93583.04
2019-01-12T17:06:55.864Z,93599.06
2019-01-12T17:09:23.979Z,93603.28
2019-01-12T17:11:52.162Z,93607.09
2019-01-12T17:14:20.274Z,93610.44
2019-01-12T17:16:48.925Z,93594.86
2019-01-12T17:19:16.698Z,93596.98
2019-01-12T17:21:45.233Z,93594.86
2019-01-12T17:24:13.608Z,93591.92
2019-01-12T17:26:41.370Z,93586.45
2019-01-12T17:29:09.949Z,93572.51
2019-01-12T17:31:38.006Z,93565.35
2019-01-12T17:34:06.715Z,93561.98
2019-01-12T17:45:01.018Z,93541.84
2019-01-12T17:47:29.292Z,93545.20
2019-01-12T17:49:57.205Z,93540.61
2019-01-12T17:52:25.620Z,93535.94
2019-01-12T17:54:53.746Z,93541.02
2019-01-12T17:58:02.337Z,93532.59
2019-01-12T18:00:50.293Z,93532.63
2019-01-12T18:03:19.025Z,93546.53
2019-01-12T18:06:07.236Z,93544.89
2019-01-12T18:08:35.451Z,93542.80
2019-01-12T18:11:03.693Z,93532.30
2019-01-12T18:13:32.150Z,93529.80
2019-01-12T18:16:01.453Z,93528.98
2019-01-12T18:19:10.105Z,93523.92
2019-01-12T18:24:26.312Z,93517.22
2019-01-12T18:27:34.846Z,93514.69
2019-01-12T18:30:03.350Z,93515.09
2019-01-12T18:32:50.415Z,93502.48
2019-01-12T18:35:20.254Z,93500.80
2019-01-12T18:37:48.788Z,93499.97
2019-01-12T18:40:17.413Z,93489.02
2019-01-12T18:42:46.594Z,93497.05
2019-01-12T18:45:16.185Z,93498.30
2019-01-12T18:47:44.329Z,93500.42
2019-01-12T18:50:16.249Z,93498.71
2019-01-12T18:55:53.393Z,93483.14
2019-01-12T18:58:42.890Z,93484.00
2019-01-12T19:01:11.623Z,93478.52
2019-01-12T19:03:40.369Z,93480.21
2019-01-12T19:06:10.015Z,93477.25
2019-01-12T19:08:38.669Z,93480.20
2019-01-12T19:11:07.370Z,93466.29
2019-01-12T19:13:55.229Z,93483.11
2019-01-12T19:16:24.283Z,93470.94
2019-01-12T19:19:11.365Z,93477.66
2019-01-12T19:21:39.152Z,93469.65
2019-01-12T19:24:07.222Z,93462.06
2019-01-12T19:27:16.065Z,93461.64
2019-01-12T19:29:44.604Z,93469.65
2019-01-12T19:32:54.071Z,93450.71
2019-01-12T19:35:42.039Z,93446.94
2019-01-12T19:38:30.239Z,93450.30
2019-01-12T19:41:18.431Z,93456.20
2019-01-12T19:43:47.593Z,93446.92
2019-01-12T19:46:56.343Z,93441.91
2019-01-12T19:49:44.181Z,93435.58
2019-01-12T19:52:12.714Z,93434.32
2019-01-12T19:54:41.788Z,93448.64
2019-01-12T19:57:30.132Z,93433.89
2019-01-12T20:00:01.685Z,93427.98
2019-01-12T20:02:50.083Z,93428.41
2019-01-12T20:05:38.257Z,93422.53
2019-01-12T20:08:07.154Z,93430.95
2019-01-12T20:10:57.875Z,93436.41
2019-01-12T20:13:26.468Z,93417.05
2019-01-12T20:15:55.604Z,93409.47
2019-01-12T20:18:24.496Z,93408.23
2019-01-12T20:20:53.163Z,93408.63
2019-01-12T20:23:22.329Z,93402.31
2019-01-12T20:25:51.257Z,93403.17
2019-01-12T20:28:21.322Z,93386.34
2019-01-12T20:31:27.930Z,93386.34
2019-01-12T20:34:34.158Z,93382.54
2019-01-12T20:37:42.056Z,93368.64
2019-01-12T20:41:02.205Z,93377.06
2019-01-12T20:43:57.926Z,93384.61
2019-01-12T20:47:04.579Z,93387.58
2019-01-12T20:50:10.886Z,93381.69
2019-01-12T20:53:11.425Z,93380.81
2019-01-12T20:56:17.792Z,93377.87
2019-01-12T20:59:28.312Z,93381.25
2019-01-12T21:02:33.166Z,93371.56
2019-01-12T21:05:23.892Z,93368.19
2019-01-12T21:08:31.362Z,93365.28
2019-01-12T21:11:37.771Z,93369.47
2019-01-12T21:14:44.135Z,93357.28
2019-01-12T21:17:16.226Z,93361.42
2019-01-12T21:22:53.365Z,93353.00
2019-01-12T21:25:22.069Z,93359.30
2019-01-12T21:27:50.451Z,93358.84
2019-01-12T21:33:09.322Z,93342.81
2019-01-12T21:35:38.170Z,93353.75
2019-01-12T21:38:06.964Z,93344.51
2019-01-12T21:40:35.199Z,93344.51
2019-01-12T21:43:04.114Z,93336.54
2019-01-12T21:45:33.306Z,93334.42
2019-01-12T21:48:01.490Z,93334.02
2019-01-12T21:50:28.851Z,93344.55
2019-01-12T21:53:16.754Z,93345.80
2019-01-12T21:55:45.575Z,93346.22
2019-01-12T21:58:33.340Z,93334.42
2019-01-12T22:01:01.787Z,93334.39
2019-01-12T22:03:30.015Z,93333.11
2019-01-12T22:06:19.693Z,93342.41
2019-01-12T22:08:47.404Z,93327.25
2019-01-12T22:11:55.507Z,93322.22
2019-01-12T22:14:23.197Z,93320.55
2019-01-12T22:16:51.346Z,93317.16
2019-01-12T22:19:19.606Z,93303.71
2019-01-12T22:22:27.393Z,93315.92
2019-01-12T22:24:55.586Z,93310.84
2019-01-12T22:27:23.711Z,93304.09
2019-01-12T22:30:32.193Z,93305.36
2019-01-12T22:33:40.750Z,93283.45
2019-01-12T22:36:08.937Z,93296.51
2019-01-12T22:38:37.018Z,93296.94
2019-01-12T22:41:05.607Z,93299.02
2019-01-12T22:43:33.416Z,93294.39
2019-01-12T22:46:01.607Z,93292.66
2019-01-12T22:48:30.019Z,93295.19
2019-01-12T22:50:58.232Z,93307.86
2019-01-12T22:53:26.583Z,93303.63
2019-01-12T22:55:55.130Z,93288.06
2019-01-12T22:58:23.586Z,93277.92
2019-01-12T23:01:34.417Z,93279.63
2019-01-12T23:04:02.484Z,93286.34
2019-01-12T23:06:30.642Z,93286.77
2019-01-12T23:08:58.852Z,93271.63
2019-01-12T23:11:27.344Z,93263.70
2019-01-12T23:13:55.767Z,93260.72
2019-01-12T23:16:24.237Z,93259.51
2019-01-12T23:18:52.341Z,93264.08
2019-01-12T23:21:20.886Z,93258.59
2019-01-12T23:23:49.076Z,93263.63
2019-01-12T23:26:17.245Z,93269.97
2019-01-12T23:28:45.719Z,93272.56
2019-01-12T23:31:13.634Z,93254.86
2019-01-12T23:33:41.615Z,93267.89
2019-01-12T23:36:09.847Z,93262.44
2019-01-12T23:38:38.255Z,93264.13
2019-01-12T23:41:06.030Z,93257.43
2019-01-12T23:46:29.502Z,93243.54
2019-01-12T23:49:37.985Z,93257.41
2019-01-12T23:52:06.451Z,93264.14
2019-01-12T23:54:34.964Z,93269.66
2019-01-12T23:57:04.031Z,93272.61
2019-01-12T23:59:32.151Z,93264.58
